sensor_id;sensor_type;location;lat;lon;timestamp;temperature;humidity
19555;DHT22;9924;50.828;6.440;2022-07-29T00:00:00;18.50;99.90
19555;DHT22;9924;50.828;6.440;2022-07-29T00:02:27;18.50;99.90
19555;DHT22;9924;50.828;6.440;2022-07-29T00:04:53;18.50;99.90
19555;DHT22;9924;50.828;6.440;2022-07-29T00:07:19;18.50;99.90
19555;DHT22;9924;50.828;6.440;2022-07-29T00:09:45;18.50;99.90
19555;DHT22;9924;50.828;6.440;2022-07-29T00:12:11;18.50;99.90
19555;DHT22;9924;50.828;6.440;2022-07-29T00:14:37;18.40;99.90
19555;DHT22;9924;50.828;6.440;2022-07-29T00:17:03;18.40;99.90
19555;DHT22;9924;50.828;6.440;2022-07-29T00:19:28;18.30;99.90
19555;DHT22;9924;50.828;6.440;2022-07-29T00:21:54;18.30;99.90
19555;DHT22;9924;50.828;6.440;2022-07-29T00:24:20;18.30;99.90
19555;DHT22;9924;50.828;6.440;2022-07-29T00:26:45;18.30;99.90
19555;DHT22;9924;50.828;6.440;2022-07-29T00:29:11;18.30;99.90
19555;DHT22;9924;50.828;6.440;2022-07-29T00:31:37;18.30;99.90
19555;DHT22;9924;50.828;6.440;2022-07-29T00:34:03;18.30;99.90
19555;DHT22;9924;50.828;6.440;2022-07-29T00:36:29;18.20;99.90
19555;DHT22;9924;50.828;6.440;2022-07-29T00:38:55;18.10;99.90
19555;DHT22;9924;50.828;6.440;2022-07-29T00:41:20;18.00;99.90
19555;DHT22;9924;50.828;6.440;2022-07-29T00:43:46;18.00;99.90
19555;DHT22;9924;50.828;6.440;2022-07-29T00:46:12;18.00;99.90
19555;DHT22;9924;50.828;6.440;2022-07-29T00:48:38;17.90;99.90
19555;DHT22;9924;50.828;6.440;2022-07-29T00:51:05;17.90;99.90
19555;DHT22;9924;50.828;6.440;2022-07-29T00:53:31;17.90;99.90
19555;DHT22;9924;50.828;6.440;2022-07-29T00:55:58;17.80;99.90
19555;DHT22;9924;50.828;6.440;2022-07-29T00:58:24;17.70;99.90
19555;DHT22;9924;50.828;6.440;2022-07-29T01:00:52;17.70;99.90
19555;DHT22;9924;50.828;6.440;2022-07-29T01:03:18;17.70;99.90
19555;DHT22;9924;50.828;6.440;2022-07-29T01:05:45;17.60;99.90
19555;DHT22;9924;50.828;6.440;2022-07-29T01:08:13;17.50;99.90
19555;DHT22;9924;50.828;6.440;2022-07-29T01:10:40;17.40;99.90
19555;DHT22;9924;50.828;6.440;2022-07-29T01:13:07;17.30;99.90
19555;DHT22;9924;50.828;6.440;2022-07-29T01:15:41;17.30;99.90
19555;DHT22;9924;50.828;6.440;2022-07-29T01:18:16;17.30;99.90
19555;DHT22;9924;50.828;6.440;2022-07-29T01:23:58;17.40;99.90
19555;DHT22;9924;50.828;6.440;2022-07-29T01:35:02;17.60;99.90
19555;DHT22;9924;50.828;6.440;2022-07-29T01:37:36;17.60;99.90
19555;DHT22;9924;50.828;6.440;2022-07-29T01:40:04;17.70;99.90
19555;DHT22;9924;50.828;6.440;2022-07-29T01:42:43;17.80;99.90
19555;DHT22;9924;50.828;6.440;2022-07-29T01:45:46;17.80;99.90
19555;DHT22;9924;50.828;6.440;2022-07-29T01:48:17;17.80;99.90
19555;DHT22;9924;50.828;6.440;2022-07-29T01:50:49;17.80;99.90
19555;DHT22;9924;50.828;6.440;2022-07-29T01:53:25;17.70;99.90
19555;DHT22;9924;50.828;6.440;2022-07-29T01:55:53;17.70;99.90
19555;DHT22;9924;50.828;6.440;2022-07-29T01:58:20;17.80;99.90
19555;DHT22;9924;50.828;6.440;2022-07-29T02:00:48;17.80;99.90
19555;DHT22;9924;50.828;6.440;2022-07-29T02:03:15;17.90;99.90
19555;DHT22;9924;50.828;6.440;2022-07-29T02:05:44;17.90;99.90
19555;DHT22;9924;50.828;6.440;2022-07-29T02:08:12;17.90;99.90
19555;DHT22;9924;50.828;6.440;2022-07-29T02:10:40;17.90;99.90
19555;DHT22;9924;50.828;6.440;2022-07-29T02:13:07;18.00;99.90
19555;DHT22;9924;50.828;6.440;2022-07-29T02:15:35;18.00;99.90
19555;DHT22;9924;50.828;6.440;2022-07-29T02:18:06;18.00;99.90
19555;DHT22;9924;50.828;6.440;2022-07-29T02:20:33;18.00;99.90
19555;DHT22;9924;50.828;6.440;2022-07-29T02:23:00;18.00;99.90
19555;DHT22;9924;50.828;6.440;2022-07-29T02:25:27;18.00;99.90
19555;DHT22;9924;50.828;6.440;2022-07-29T02:27:55;18.00;99.90
19555;DHT22;9924;50.828;6.440;2022-07-29T02:30:22;18.00;99.90
19555;DHT22;9924;50.828;6.440;2022-07-29T02:32:49;18.00;99.90
19555;DHT22;9924;50.828;6.440;2022-07-29T02:35:17;18.00;99.90
19555;DHT22;9924;50.828;6.440;2022-07-29T02:37:44;18.00;99.90
19555;DHT22;9924;50.828;6.440;2022-07-29T02:40:32;18.00;99.90
19555;DHT22;9924;50.828;6.440;2022-07-29T02:42:59;18.00;99.90
19555;DHT22;9924;50.828;6.440;2022-07-29T02:45:26;18.00;99.90
19555;DHT22;9924;50.828;6.440;2022-07-29T02:47:53;18.00;99.90
19555;DHT22;9924;50.828;6.440;2022-07-29T02:50:29;17.90;99.90
19555;DHT22;9924;50.828;6.440;2022-07-29T02:53:07;17.90;99.90
19555;DHT22;9924;50.828;6.440;2022-07-29T02:55:39;17.90;99.90
19555;DHT22;9924;50.828;6.440;2022-07-29T03:00:37;17.80;99.90
19555;DHT22;9924;50.828;6.440;2022-07-29T03:03:12;17.80;99.90
19555;DHT22;9924;50.828;6.440;2022-07-29T03:05:39;17.80;99.90
19555;DHT22;9924;50.828;6.440;2022-07-29T03:08:08;17.70;99.90
19555;DHT22;9924;50.828;6.440;2022-07-29T03:10:34;17.70;99.90
19555;DHT22;9924;50.828;6.440;2022-07-29T03:13:04;17.60;99.90
19555;DHT22;9924;50.828;6.440;2022-07-29T03:15:31;17.60;99.90
19555;DHT22;9924;50.828;6.440;2022-07-29T03:17:58;17.60;99.90
19555;DHT22;9924;50.828;6.440;2022-07-29T03:20:24;17.60;99.90
19555;DHT22;9924;50.828;6.440;2022-07-29T03:22:50;17.50;99.90
19555;DHT22;9924;50.828;6.440;2022-07-29T03:25:18;17.50;99.90
19555;DHT22;9924;50.828;6.440;2022-07-29T03:27:44;17.60;99.90
19555;DHT22;9924;50.828;6.440;2022-07-29T03:30:12;17.60;99.90
19555;DHT22;9924;50.828;6.440;2022-07-29T03:32:39;17.60;99.90
19555;DHT22;9924;50.828;6.440;2022-07-29T03:35:06;17.60;99.90
19555;DHT22;9924;50.828;6.440;2022-07-29T03:37:32;17.60;99.90
19555;DHT22;9924;50.828;6.440;2022-07-29T03:40:00;17.50;99.90
19555;DHT22;9924;50.828;6.440;2022-07-29T03:42:32;17.40;99.90
19555;DHT22;9924;50.828;6.440;2022-07-29T03:45:02;17.40;99.90
19555;DHT22;9924;50.828;6.440;2022-07-29T03:47:29;17.50;99.90
19555;DHT22;9924;50.828;6.440;2022-07-29T03:50:02;17.50;99.90
19555;DHT22;9924;50.828;6.440;2022-07-29T03:52:28;17.50;99.90
19555;DHT22;9924;50.828;6.440;2022-07-29T03:54:54;17.40;99.90
19555;DHT22;9924;50.828;6.440;2022-07-29T03:57:23;17.50;99.90
19555;DHT22;9924;50.828;6.440;2022-07-29T03:59:51;17.50;99.90
19555;DHT22;9924;50.828;6.440;2022-07-29T04:02:17;17.60;99.90
19555;DHT22;9924;50.828;6.440;2022-07-29T04:04:43;17.60;99.90
19555;DHT22;9924;50.828;6.440;2022-07-29T04:07:12;17.60;99.90
19555;DHT22;9924;50.828;6.440;2022-07-29T04:09:38;17.50;99.90
19555;DHT22;9924;50.828;6.440;2022-07-29T04:12:04;17.50;99.90
19555;DHT22;9924;50.828;6.440;2022-07-29T04:14:34;17.40;99.90
19555;DHT22;9924;50.828;6.440;2022-07-29T04:17:04;17.30;99.90
19555;DHT22;9924;50.828;6.440;2022-07-29T04:19:31;17.30;99.90
19555;DHT22;9924;50.828;6.440;2022-07-29T04:22:00;17.30;99.90
19555;DHT22;9924;50.828;6.440;2022-07-29T04:24:27;17.30;99.90
19555;DHT22;9924;50.828;6.440;2022-07-29T04:26:53;17.30;99.90
19555;DHT22;9924;50.828;6.440;2022-07-29T04:29:19;17.30;99.90
19555;DHT22;9924;50.828;6.440;2022-07-29T04:31:45;17.30;99.90
19555;DHT22;9924;50.828;6.440;2022-07-29T04:34:11;17.40;99.90
19555;DHT22;9924;50.828;6.440;2022-07-29T04:36:37;17.40;99.90
19555;DHT22;9924;50.828;6.440;2022-07-29T04:39:03;17.50;99.90
19555;DHT22;9924;50.828;6.440;2022-07-29T04:41:29;17.50;99.90
19555;DHT22;9924;50.828;6.440;2022-07-29T04:43:56;17.50;99.90
19555;DHT22;9924;50.828;6.440;2022-07-29T04:46:22;17.40;99.90
19555;DHT22;9924;50.828;6.440;2022-07-29T04:48:48;17.40;99.90
19555;DHT22;9924;50.828;6.440;2022-07-29T04:51:16;17.50;99.90
19555;DHT22;9924;50.828;6.440;2022-07-29T04:53:42;17.50;99.90
19555;DHT22;9924;50.828;6.440;2022-07-29T04:56:08;17.60;99.90
19555;DHT22;9924;50.828;6.440;2022-07-29T04:58:34;17.60;99.90
19555;DHT22;9924;50.828;6.440;2022-07-29T05:01:00;17.50;99.90
19555;DHT22;9924;50.828;6.440;2022-07-29T05:03:26;17.60;99.90
19555;DHT22;9924;50.828;6.440;2022-07-29T05:05:52;17.60;99.90
19555;DHT22;9924;50.828;6.440;2022-07-29T05:08:18;17.60;99.90
19555;DHT22;9924;50.828;6.440;2022-07-29T05:10:44;17.60;99.90
19555;DHT22;9924;50.828;6.440;2022-07-29T05:13:10;17.70;99.90
19555;DHT22;9924;50.828;6.440;2022-07-29T05:15:36;17.70;99.90
19555;DHT22;9924;50.828;6.440;2022-07-29T05:18:03;17.70;99.90
19555;DHT22;9924;50.828;6.440;2022-07-29T05:20:29;17.70;99.90
19555;DHT22;9924;50.828;6.440;2022-07-29T05:22:57;17.70;99.90
19555;DHT22;9924;50.828;6.440;2022-07-29T05:25:23;17.70;99.90
19555;DHT22;9924;50.828;6.440;2022-07-29T05:27:49;17.70;99.90
19555;DHT22;9924;50.828;6.440;2022-07-29T05:30:15;17.60;99.90
19555;DHT22;9924;50.828;6.440;2022-07-29T05:32:41;17.60;99.90
19555;DHT22;9924;50.828;6.440;2022-07-29T05:35:07;17.60;99.90
19555;DHT22;9924;50.828;6.440;2022-07-29T05:37:33;17.70;99.90
19555;DHT22;9924;50.828;6.440;2022-07-29T05:39:59;17.70;99.90
19555;DHT22;9924;50.828;6.440;2022-07-29T05:42:25;17.70;99.90
19555;DHT22;9924;50.828;6.440;2022-07-29T05:44:51;17.70;99.90
19555;DHT22;9924;50.828;6.440;2022-07-29T05:47:17;17.60;99.90
19555;DHT22;9924;50.828;6.440;2022-07-29T05:49:42;17.70;99.90
19555;DHT22;9924;50.828;6.440;2022-07-29T05:52:09;17.70;99.90
19555;DHT22;9924;50.828;6.440;2022-07-29T05:54:35;17.70;99.90
19555;DHT22;9924;50.828;6.440;2022-07-29T05:57:01;17.80;99.90
19555;DHT22;9924;50.828;6.440;2022-07-29T05:59:27;17.60;99.90
19555;DHT22;9924;50.828;6.440;2022-07-29T06:01:53;17.60;99.90
19555;DHT22;9924;50.828;6.440;2022-07-29T06:04:19;17.50;99.90
19555;DHT22;9924;50.828;6.440;2022-07-29T06:06:44;17.40;99.90
19555;DHT22;9924;50.828;6.440;2022-07-29T06:09:10;17.40;99.90
19555;DHT22;9924;50.828;6.440;2022-07-29T06:11:36;17.40;99.90
19555;DHT22;9924;50.828;6.440;2022-07-29T06:14:02;17.50;99.90
19555;DHT22;9924;50.828;6.440;2022-07-29T06:16:29;17.50;99.90
19555;DHT22;9924;50.828;6.440;2022-07-29T06:18:54;17.60;99.90
19555;DHT22;9924;50.828;6.440;2022-07-29T06:21:20;17.70;99.90
19555;DHT22;9924;50.828;6.440;2022-07-29T06:23:46;17.70;99.90
19555;DHT22;9924;50.828;6.440;2022-07-29T06:26:12;17.70;99.90
19555;DHT22;9924;50.828;6.440;2022-07-29T06:28:38;17.70;99.90
19555;DHT22;9924;50.828;6.440;2022-07-29T06:31:05;17.60;99.90
19555;DHT22;9924;50.828;6.440;2022-07-29T06:33:31;17.60;99.90
19555;DHT22;9924;50.828;6.440;2022-07-29T06:35:57;17.60;99.90
19555;DHT22;9924;50.828;6.440;2022-07-29T06:38:23;17.70;99.90
19555;DHT22;9924;50.828;6.440;2022-07-29T06:40:49;17.70;99.90
19555;DHT22;9924;50.828;6.440;2022-07-29T06:43:32;17.70;99.90
19555;DHT22;9924;50.828;6.440;2022-07-29T06:46:00;17.70;99.90
19555;DHT22;9924;50.828;6.440;2022-07-29T06:48:27;17.70;99.90
19555;DHT22;9924;50.828;6.440;2022-07-29T06:50:53;17.70;99.90
19555;DHT22;9924;50.828;6.440;2022-07-29T06:53:20;17.70;99.90
19555;DHT22;9924;50.828;6.440;2022-07-29T06:55:46;17.60;99.90
19555;DHT22;9924;50.828;6.440;2022-07-29T06:58:11;17.50;99.90
19555;DHT22;9924;50.828;6.440;2022-07-29T07:00:40;17.50;99.90
19555;DHT22;9924;50.828;6.440;2022-07-29T07:03:06;17.50;99.90
19555;DHT22;9924;50.828;6.440;2022-07-29T07:05:31;17.60;99.90
19555;DHT22;9924;50.828;6.440;2022-07-29T07:07:57;17.70;99.90
19555;DHT22;9924;50.828;6.440;2022-07-29T07:10:23;17.70;99.90
19555;DHT22;9924;50.828;6.440;2022-07-29T07:12:48;17.60;99.90
19555;DHT22;9924;50.828;6.440;2022-07-29T07:15:14;17.50;99.90
19555;DHT22;9924;50.828;6.440;2022-07-29T07:17:40;17.70;99.90
19555;DHT22;9924;50.828;6.440;2022-07-29T07:20:06;18.00;99.90
19555;DHT22;9924;50.828;6.440;2022-07-29T07:22:32;18.20;99.90
19555;DHT22;9924;50.828;6.440;2022-07-29T07:24:58;18.40;99.90
19555;DHT22;9924;50.828;6.440;2022-07-29T07:27:23;18.50;99.90
19555;DHT22;9924;50.828;6.440;2022-07-29T07:29:49;18.50;99.90
19555;DHT22;9924;50.828;6.440;2022-07-29T07:32:15;18.50;99.90
19555;DHT22;9924;50.828;6.440;2022-07-29T07:34:42;18.50;99.90
19555;DHT22;9924;50.828;6.440;2022-07-29T07:37:08;18.50;99.90
19555;DHT22;9924;50.828;6.440;2022-07-29T07:39:34;18.50;99.90
19555;DHT22;9924;50.828;6.440;2022-07-29T07:42:00;18.50;99.90
19555;DHT22;9924;50.828;6.440;2022-07-29T07:44:26;18.60;99.90
19555;DHT22;9924;50.828;6.440;2022-07-29T07:46:52;18.60;99.90
19555;DHT22;9924;50.828;6.440;2022-07-29T07:49:18;18.60;99.90
19555;DHT22;9924;50.828;6.440;2022-07-29T07:51:44;18.60;99.90
19555;DHT22;9924;50.828;6.440;2022-07-29T07:54:10;18.60;99.90
19555;DHT22;9924;50.828;6.440;2022-07-29T07:56:36;18.60;99.90
19555;DHT22;9924;50.828;6.440;2022-07-29T07:59:02;18.50;99.90
19555;DHT22;9924;50.828;6.440;2022-07-29T08:01:28;18.50;99.90
19555;DHT22;9924;50.828;6.440;2022-07-29T08:03:53;18.50;99.90
19555;DHT22;9924;50.828;6.440;2022-07-29T08:06:19;18.70;99.90
19555;DHT22;9924;50.828;6.440;2022-07-29T08:08:45;18.90;99.90
19555;DHT22;9924;50.828;6.440;2022-07-29T08:11:11;19.20;99.90
19555;DHT22;9924;50.828;6.440;2022-07-29T08:13:38;19.60;99.90
19555;DHT22;9924;50.828;6.440;2022-07-29T08:16:04;20.00;99.90
19555;DHT22;9924;50.828;6.440;2022-07-29T08:18:41;20.40;99.90
19555;DHT22;9924;50.828;6.440;2022-07-29T08:21:07;20.90;99.90
19555;DHT22;9924;50.828;6.440;2022-07-29T08:23:33;21.30;99.90
19555;DHT22;9924;50.828;6.440;2022-07-29T08:26:11;21.70;99.90
19555;DHT22;9924;50.828;6.440;2022-07-29T08:28:43;22.10;99.90
19555;DHT22;9924;50.828;6.440;2022-07-29T08:31:15;22.30;99.90
19555;DHT22;9924;50.828;6.440;2022-07-29T08:33:41;22.30;99.90
19555;DHT22;9924;50.828;6.440;2022-07-29T08:36:07;22.20;99.90
19555;DHT22;9924;50.828;6.440;2022-07-29T08:38:33;22.30;99.90
19555;DHT22;9924;50.828;6.440;2022-07-29T08:41:02;22.40;99.90
19555;DHT22;9924;50.828;6.440;2022-07-29T08:43:29;22.40;99.90
19555;DHT22;9924;50.828;6.440;2022-07-29T08:45:55;22.40;99.90
19555;DHT22;9924;50.828;6.440;2022-07-29T08:48:22;22.50;99.90
19555;DHT22;9924;50.828;6.440;2022-07-29T08:50:54;22.50;99.90
19555;DHT22;9924;50.828;6.440;2022-07-29T08:53:22;22.70;99.90
19555;DHT22;9924;50.828;6.440;2022-07-29T08:55:51;22.70;99.90
19555;DHT22;9924;50.828;6.440;2022-07-29T08:58:21;22.80;99.90
19555;DHT22;9924;50.828;6.440;2022-07-29T09:00:54;22.60;99.90
19555;DHT22;9924;50.828;6.440;2022-07-29T09:03:23;22.30;99.90
19555;DHT22;9924;50.828;6.440;2022-07-29T09:05:50;22.10;99.90
19555;DHT22;9924;50.828;6.440;2022-07-29T09:08:17;22.10;99.90
19555;DHT22;9924;50.828;6.440;2022-07-29T09:10:44;22.10;99.90
19555;DHT22;9924;50.828;6.440;2022-07-29T09:13:10;22.10;99.90
19555;DHT22;9924;50.828;6.440;2022-07-29T09:15:36;22.20;99.90
19555;DHT22;9924;50.828;6.440;2022-07-29T09:18:02;22.20;99.90
19555;DHT22;9924;50.828;6.440;2022-07-29T09:20:28;22.40;99.90
19555;DHT22;9924;50.828;6.440;2022-07-29T09:23:12;22.70;99.90
19555;DHT22;9924;50.828;6.440;2022-07-29T09:25:41;23.00;99.90
19555;DHT22;9924;50.828;6.440;2022-07-29T09:28:08;23.10;99.90
19555;DHT22;9924;50.828;6.440;2022-07-29T09:30:56;23.40;99.90
19555;DHT22;9924;50.828;6.440;2022-07-29T09:33:31;23.30;99.90
19555;DHT22;9924;50.828;6.440;2022-07-29T09:36:04;23.80;99.90
19555;DHT22;9924;50.828;6.440;2022-07-29T09:38:31;24.30;99.90
19555;DHT22;9924;50.828;6.440;2022-07-29T09:40:58;24.40;99.90
19555;DHT22;9924;50.828;6.440;2022-07-29T09:43:24;24.00;99.90
19555;DHT22;9924;50.828;6.440;2022-07-29T09:45:50;24.00;99.90
19555;DHT22;9924;50.828;6.440;2022-07-29T09:48:22;24.50;99.90
19555;DHT22;9924;50.828;6.440;2022-07-29T09:50:49;24.90;99.90
19555;DHT22;9924;50.828;6.440;2022-07-29T09:53:47;25.00;99.90
19555;DHT22;9924;50.828;6.440;2022-07-29T09:56:13;24.90;99.90
19555;DHT22;9924;50.828;6.440;2022-07-29T09:58:39;25.10;99.90
19555;DHT22;9924;50.828;6.440;2022-07-29T10:01:05;25.30;99.90
19555;DHT22;9924;50.828;6.440;2022-07-29T10:03:31;25.60;99.90
19555;DHT22;9924;50.828;6.440;2022-07-29T10:06:08;25.80;99.90
19555;DHT22;9924;50.828;6.440;2022-07-29T10:08:35;25.90;99.90
19555;DHT22;9924;50.828;6.440;2022-07-29T10:11:15;26.10;99.90
19555;DHT22;9924;50.828;6.440;2022-07-29T10:13:42;26.10;99.90
19555;DHT22;9924;50.828;6.440;2022-07-29T10:16:08;26.10;99.90
19555;DHT22;9924;50.828;6.440;2022-07-29T10:18:34;26.00;99.90
19555;DHT22;9924;50.828;6.440;2022-07-29T10:21:01;25.80;99.90
19555;DHT22;9924;50.828;6.440;2022-07-29T10:23:30;25.90;99.90
19555;DHT22;9924;50.828;6.440;2022-07-29T10:25:57;25.90;99.90
19555;DHT22;9924;50.828;6.440;2022-07-29T10:28:23;26.00;99.90
19555;DHT22;9924;50.828;6.440;2022-07-29T10:30:51;25.90;99.90
19555;DHT22;9924;50.828;6.440;2022-07-29T10:33:46;26.00;99.90
19555;DHT22;9924;50.828;6.440;2022-07-29T10:39:58;26.60;99.90
19555;DHT22;9924;50.828;6.440;2022-07-29T10:42:29;27.00;99.90
19555;DHT22;9924;50.828;6.440;2022-07-29T10:44:55;26.90;99.90
19555;DHT22;9924;50.828;6.440;2022-07-29T10:47:25;27.00;99.90
19555;DHT22;9924;50.828;6.440;2022-07-29T10:50:02;26.80;99.90
19555;DHT22;9924;50.828;6.440;2022-07-29T15:02:27;30.00;90.90
19555;DHT22;9924;50.828;6.440;2022-07-29T15:04:53;29.70;91.90
19555;DHT22;9924;50.828;6.440;2022-07-29T15:07:19;30.00;92.50
19555;DHT22;9924;50.828;6.440;2022-07-29T15:09:45;30.30;92.00
19555;DHT22;9924;50.828;6.440;2022-07-29T15:12:11;30.20;91.50
19555;DHT22;9924;50.828;6.440;2022-07-29T15:14:37;30.10;92.40
19555;DHT22;9924;50.828;6.440;2022-07-29T15:17:02;30.80;92.00
19555;DHT22;9924;50.828;6.440;2022-07-29T15:19:28;30.90;90.80
19555;DHT22;9924;50.828;6.440;2022-07-29T15:21:54;30.80;91.30
19555;DHT22;9924;50.828;6.440;2022-07-29T15:24:20;30.70;91.20
19555;DHT22;9924;50.828;6.440;2022-07-29T15:26:46;30.50;90.60
19555;DHT22;9924;50.828;6.440;2022-07-29T15:29:12;30.50;90.50
19555;DHT22;9924;50.828;6.440;2022-07-29T15:31:40;30.70;90.80
19555;DHT22;9924;50.828;6.440;2022-07-29T15:34:06;30.80;90.20
19555;DHT22;9924;50.828;6.440;2022-07-29T15:36:32;30.80;90.90
19555;DHT22;9924;50.828;6.440;2022-07-29T15:38:58;31.20;90.80
19555;DHT22;9924;50.828;6.440;2022-07-29T15:41:24;31.70;90.80
19555;DHT22;9924;50.828;6.440;2022-07-29T15:43:50;32.00;88.60
19555;DHT22;9924;50.828;6.440;2022-07-29T15:46:17;31.90;89.10
19555;DHT22;9924;50.828;6.440;2022-07-29T15:49:03;31.00;89.30
19555;DHT22;9924;50.828;6.440;2022-07-29T15:51:29;30.00;90.60
19555;DHT22;9924;50.828;6.440;2022-07-29T15:53:55;29.50;91.80
19555;DHT22;9924;50.828;6.440;2022-07-29T15:56:21;29.70;91.50
19555;DHT22;9924;50.828;6.440;2022-07-29T15:58:47;29.40;91.50
19555;DHT22;9924;50.828;6.440;2022-07-29T16:01:13;28.90;92.00
19555;DHT22;9924;50.828;6.440;2022-07-29T16:03:39;28.60;93.20
19555;DHT22;9924;50.828;6.440;2022-07-29T16:06:05;29.20;92.30
19555;DHT22;9924;50.828;6.440;2022-07-29T16:08:31;29.60;92.50
19555;DHT22;9924;50.828;6.440;2022-07-29T16:10:57;29.80;92.10
19555;DHT22;9924;50.828;6.440;2022-07-29T16:13:22;29.90;92.40
19555;DHT22;9924;50.828;6.440;2022-07-29T16:15:48;30.20;91.90
19555;DHT22;9924;50.828;6.440;2022-07-29T16:18:14;30.30;92.10
19555;DHT22;9924;50.828;6.440;2022-07-29T16:20:41;30.20;92.20
19555;DHT22;9924;50.828;6.440;2022-07-29T16:23:07;30.20;92.20
19555;DHT22;9924;50.828;6.440;2022-07-29T16:25:42;30.40;92.20
19555;DHT22;9924;50.828;6.440;2022-07-29T16:28:09;30.40;91.90
19555;DHT22;9924;50.828;6.440;2022-07-29T16:30:35;30.60;91.70
19555;DHT22;9924;50.828;6.440;2022-07-29T16:33:02;30.30;91.60
19555;DHT22;9924;50.828;6.440;2022-07-29T16:35:28;29.60;92.30
19555;DHT22;9924;50.828;6.440;2022-07-29T16:37:55;29.00;93.10
19555;DHT22;9924;50.828;6.440;2022-07-29T16:40:22;28.50;94.60
19555;DHT22;9924;50.828;6.440;2022-07-29T16:42:47;28.20;94.70
19555;DHT22;9924;50.828;6.440;2022-07-29T16:45:15;28.30;94.70
19555;DHT22;9924;50.828;6.440;2022-07-29T16:47:41;28.40;94.80
19555;DHT22;9924;50.828;6.440;2022-07-29T16:50:08;28.70;94.60
19555;DHT22;9924;50.828;6.440;2022-07-29T16:52:33;28.60;94.90
19555;DHT22;9924;50.828;6.440;2022-07-29T16:55:00;28.80;94.80
19555;DHT22;9924;50.828;6.440;2022-07-29T16:57:26;28.50;94.70
19555;DHT22;9924;50.828;6.440;2022-07-29T16:59:51;28.00;95.50
19555;DHT22;9924;50.828;6.440;2022-07-29T17:02:17;27.60;96.20
19555;DHT22;9924;50.828;6.440;2022-07-29T17:04:43;27.20;96.30
19555;DHT22;9924;50.828;6.440;2022-07-29T17:07:09;27.00;97.00
19555;DHT22;9924;50.828;6.440;2022-07-29T17:09:35;26.80;97.20
19555;DHT22;9924;50.828;6.440;2022-07-29T17:12:00;26.50;97.80
19555;DHT22;9924;50.828;6.440;2022-07-29T17:14:28;26.40;98.20
19555;DHT22;9924;50.828;6.440;2022-07-29T17:16:58;26.20;98.30
19555;DHT22;9924;50.828;6.440;2022-07-29T17:19:25;26.10;98.50
19555;DHT22;9924;50.828;6.440;2022-07-29T17:21:51;26.10;99.00
19555;DHT22;9924;50.828;6.440;2022-07-29T17:24:17;26.00;98.50
19555;DHT22;9924;50.828;6.440;2022-07-29T17:26:42;26.00;98.80
19555;DHT22;9924;50.828;6.440;2022-07-29T17:29:11;25.90;99.10
19555;DHT22;9924;50.828;6.440;2022-07-29T17:31:37;25.90;98.50
19555;DHT22;9924;50.828;6.440;2022-07-29T17:34:03;25.90;98.60
19555;DHT22;9924;50.828;6.440;2022-07-29T17:36:31;26.10;98.90
19555;DHT22;9924;50.828;6.440;2022-07-29T17:39:01;26.60;98.00
19555;DHT22;9924;50.828;6.440;2022-07-29T17:41:27;26.80;97.50
19555;DHT22;9924;50.828;6.440;2022-07-29T17:43:53;26.60;97.80
19555;DHT22;9924;50.828;6.440;2022-07-29T17:46:21;26.50;98.10
19555;DHT22;9924;50.828;6.440;2022-07-29T17:48:48;26.50;97.80
19555;DHT22;9924;50.828;6.440;2022-07-29T17:51:14;26.80;98.00
19555;DHT22;9924;50.828;6.440;2022-07-29T17:53:40;27.00;97.70
19555;DHT22;9924;50.828;6.440;2022-07-29T17:56:06;27.10;97.60
19555;DHT22;9924;50.828;6.440;2022-07-29T17:58:32;26.90;97.80
19555;DHT22;9924;50.828;6.440;2022-07-29T18:00:58;26.50;97.80
19555;DHT22;9924;50.828;6.440;2022-07-29T18:03:24;26.00;98.90
19555;DHT22;9924;50.828;6.440;2022-07-29T18:05:51;25.80;99.50
19555;DHT22;9924;50.828;6.440;2022-07-29T18:08:18;25.70;99.90
19555;DHT22;9924;50.828;6.440;2022-07-29T18:10:44;25.60;99.90
19555;DHT22;9924;50.828;6.440;2022-07-29T18:13:10;25.50;99.90
19555;DHT22;9924;50.828;6.440;2022-07-29T18:15:38;25.30;99.90
19555;DHT22;9924;50.828;6.440;2022-07-29T18:18:04;25.10;99.90
19555;DHT22;9924;50.828;6.440;2022-07-29T18:20:30;25.10;99.90
19555;DHT22;9924;50.828;6.440;2022-07-29T18:22:56;25.00;99.90
19555;DHT22;9924;50.828;6.440;2022-07-29T18:25:22;25.00;99.90
19555;DHT22;9924;50.828;6.440;2022-07-29T18:27:48;24.90;99.90
19555;DHT22;9924;50.828;6.440;2022-07-29T18:30:14;24.80;99.90
19555;DHT22;9924;50.828;6.440;2022-07-29T18:32:40;24.70;99.90
19555;DHT22;9924;50.828;6.440;2022-07-29T18:35:07;24.60;99.90
19555;DHT22;9924;50.828;6.440;2022-07-29T18:37:33;24.50;99.90
19555;DHT22;9924;50.828;6.440;2022-07-29T18:40:00;24.50;99.90
19555;DHT22;9924;50.828;6.440;2022-07-29T18:42:26;24.40;99.90
19555;DHT22;9924;50.828;6.440;2022-07-29T18:44:52;24.40;99.90
19555;DHT22;9924;50.828;6.440;2022-07-29T18:47:19;24.30;99.90
19555;DHT22;9924;50.828;6.440;2022-07-29T18:49:45;24.20;99.90
19555;DHT22;9924;50.828;6.440;2022-07-29T18:52:10;24.10;99.90
19555;DHT22;9924;50.828;6.440;2022-07-29T18:54:36;24.10;99.90
19555;DHT22;9924;50.828;6.440;2022-07-29T18:57:02;24.10;99.90
19555;DHT22;9924;50.828;6.440;2022-07-29T18:59:28;24.00;99.90
19555;DHT22;9924;50.828;6.440;2022-07-29T19:01:55;24.10;99.90
19555;DHT22;9924;50.828;6.440;2022-07-29T19:04:20;24.10;99.90
19555;DHT22;9924;50.828;6.440;2022-07-29T19:06:46;24.00;99.90
19555;DHT22;9924;50.828;6.440;2022-07-29T19:09:12;24.00;99.90
19555;DHT22;9924;50.828;6.440;2022-07-29T19:11:38;24.00;99.90
19555;DHT22;9924;50.828;6.440;2022-07-29T19:14:04;24.00;99.90
19555;DHT22;9924;50.828;6.440;2022-07-29T19:16:31;24.00;99.90
19555;DHT22;9924;50.828;6.440;2022-07-29T19:18:58;24.00;99.90
19555;DHT22;9924;50.828;6.440;2022-07-29T19:21:28;24.00;99.90
19555;DHT22;9924;50.828;6.440;2022-07-29T19:23:55;24.00;99.90
19555;DHT22;9924;50.828;6.440;2022-07-29T19:26:21;24.00;99.90
19555;DHT22;9924;50.828;6.440;2022-07-29T19:28:47;24.00;99.90
19555;DHT22;9924;50.828;6.440;2022-07-29T19:31:13;24.00;99.90
19555;DHT22;9924;50.828;6.440;2022-07-29T19:33:39;23.90;99.90
19555;DHT22;9924;50.828;6.440;2022-07-29T19:36:05;23.90;99.90
19555;DHT22;9924;50.828;6.440;2022-07-29T19:38:31;23.90;99.90
19555;DHT22;9924;50.828;6.440;2022-07-29T19:40:57;23.90;99.90
19555;DHT22;9924;50.828;6.440;2022-07-29T19:43:23;23.80;99.90
19555;DHT22;9924;50.828;6.440;2022-07-29T19:45:49;23.70;99.90
19555;DHT22;9924;50.828;6.440;2022-07-29T19:48:15;23.50;99.90
19555;DHT22;9924;50.828;6.440;2022-07-29T19:50:41;23.50;99.90
19555;DHT22;9924;50.828;6.440;2022-07-29T19:53:07;23.40;99.90
19555;DHT22;9924;50.828;6.440;2022-07-29T19:55:33;23.30;99.90
19555;DHT22;9924;50.828;6.440;2022-07-29T19:57:59;23.30;99.90
19555;DHT22;9924;50.828;6.440;2022-07-29T20:00:27;23.20;99.90
19555;DHT22;9924;50.828;6.440;2022-07-29T20:02:53;23.10;99.90
19555;DHT22;9924;50.828;6.440;2022-07-29T20:05:20;23.00;99.90
19555;DHT22;9924;50.828;6.440;2022-07-29T20:07:46;22.90;99.90
19555;DHT22;9924;50.828;6.440;2022-07-29T20:10:13;22.70;99.90
19555;DHT22;9924;50.828;6.440;2022-07-29T20:12:39;22.60;99.90